Time;durP1;ratioP1;P1;durP2;ratioP2;P2;SDS_P1;SDS_P2;PMS_P1;PMS_P2;Temp;Humidity;BMP_temperature;BMP_pressure;BME280_temperature;BME280_humidity;BME280_pressure;Samples;Min_cycle;Max_cycle;Signal;HPM_P1;HPM_P2
2024/02/24 00:00:26;;;;;;;;;;;;;;;18.95;38.48;93954.41;10541354;28;1449;-59
2024/02/24 00:05:27;;;;;;;;;;;;;;;18.91;38.58;93962.13;10551765;27;2262;-57
2024/02/24 00:10:27;;;;;;;;;;;;;;;18.89;37.76;93953.78;10542182;28;1910;-60
2024/02/24 00:15:27;;;;;;;;;;;;;;;18.85;38.51;93963.34;10533609;28;1504;-60
2024/02/24 00:20:28;;;;;;;;;;;;;;;18.87;36.81;93970.91;10530954;28;1628;-58
2024/02/24 00:25:28;;;;;;;;;;;;;;;18.82;38.00;93974.44;10536328;28;1467;-60
2024/02/24 00:30:29;;;;;;;;;;;;;;;18.82;37.16;93979.69;10535944;28;1942;-59
2024/02/24 00:35:29;;;;;;;;;;;;;;;18.82;36.96;93971.81;10533388;28;1592;-60
2024/02/24 00:40:30;;;;;;;;;;;;;;;18.83;37.29;93967.34;10537517;28;1167;-59
2024/02/24 00:45:30;;;;;;;;;;;;;;;18.77;37.29;93960.69;10530087;28;2454;-59
2024/02/24 00:50:30;;;;;;;;;;;;;;;18.77;37.39;93965.94;10531613;28;1977;-59
2024/02/24 00:55:31;;;;;;;;;;;;;;;18.74;36.53;93967.31;10532152;28;1565;-58
2024/02/24 01:00:31;;;;;;;;;;;;;;;18.70;36.66;93963.75;10530402;28;1686;-60
2024/02/24 01:05:31;;;;;;;;;;;;;;;18.71;36.23;93957.44;10526339;28;1481;-59
2024/02/24 01:10:31;;;;;;;;;;;;;;;18.66;37.08;93954.94;10525731;28;1910;-59
2024/02/24 01:15:32;;;;;;;;;;;;;;;18.67;37.08;93969.59;10528590;28;1670;-59
2024/02/24 01:20:32;;;;;;;;;;;;;;;18.63;36.62;93971.28;10524566;28;1477;-59
2024/02/24 01:25:33;;;;;;;;;;;;;;;18.62;36.57;93980.25;10527029;28;952;-59
2024/02/24 01:30:33;;;;;;;;;;;;;;;18.59;36.45;93986.09;10526509;28;2380;-59
2024/02/24 01:35:34;;;;;;;;;;;;;;;18.57;36.40;93977.75;10519688;28;1764;-59
2024/02/24 01:40:35;;;;;;;;;;;;;;;18.54;37.07;93983.63;10511976;28;1574;-59
2024/02/24 01:45:35;;;;;;;;;;;;;;;18.51;37.02;93990.22;10521557;28;1587;-59
2024/02/24 01:50:40;;;;;;;;;;;;;;;18.48;37.07;93993.47;10520992;28;1909;-59
2024/02/24 01:55:40;;;;;;;;;;;;;;;18.49;36.55;93991.59;10525018;28;1478;-59
2024/02/24 02:00:41;;;;;;;;;;;;;;;18.48;35.65;94000.56;10521793;28;1287;-59
2024/02/24 02:05:41;;;;;;;;;;;;;;;18.44;36.57;94005.63;10521903;28;1766;-59
2024/02/24 02:10:44;;;;;;;;;;;;;;;18.46;35.61;94010.59;10526138;28;1910;-59
2024/02/24 02:15:45;;;;;;;;;;;;;;;18.43;36.05;94005.91;10518598;28;1337;-59
2024/02/24 02:20:46;;;;;;;;;;;;;;;18.41;36.16;94014.09;10517007;28;2433;-59
2024/02/24 02:25:46;;;;;;;;;;;;;;;18.38;36.33;94008.66;10516166;28;1490;-59
2024/02/24 02:30:46;;;;;;;;;;;;;;;18.35;36.83;94010.03;10525445;28;1968;-59
2024/02/24 02:35:46;;;;;;;;;;;;;;;18.35;36.64;94006.63;10512583;28;1961;-58
2024/02/24 02:40:47;;;;;;;;;;;;;;;18.33;35.87;94001.69;10516760;28;1592;-59
2024/02/24 02:45:47;;;;;;;;;;;;;;;18.32;36.23;94018.50;10517923;28;1600;-62
2024/02/24 02:50:47;;;;;;;;;;;;;;;18.29;36.67;94024.34;10514286;28;1901;-58
2024/02/24 02:55:47;;;;;;;;;;;;;;;18.29;35.36;94031.44;10519271;28;1542;-58
2024/02/24 03:00:48;;;;;;;;;;;;;;;18.27;35.61;94026.50;10523284;28;2185;-59
2024/02/24 03:05:48;;;;;;;;;;;;;;;18.25;36.16;94022.63;10513024;28;1490;-58
2024/02/24 03:10:48;;;;;;;;;;;;;;;18.23;36.63;94032.66;10510719;28;1906;-58
2024/02/24 03:15:49;;;;;;;;;;;;;;;18.21;36.52;94032.16;10509826;28;1794;-59
2024/02/24 03:20:49;;;;;;;;;;;;;;;18.21;35.08;94038.19;10523160;28;1467;-58
2024/02/24 03:25:49;;;;;;;;;;;;;;;18.20;35.34;94052.38;10516643;28;1529;-58
2024/02/24 03:30:49;;;;;;;;;;;;;;;18.17;36.10;94039.09;10517038;28;1917;-58
2024/02/24 03:35:50;;;;;;;;;;;;;;;18.15;36.40;94046.47;10519621;28;1654;-58
2024/02/24 03:40:50;;;;;;;;;;;;;;;18.14;36.09;94050.16;10517522;28;1774;-58
2024/02/24 03:45:50;;;;;;;;;;;;;;;18.13;36.08;94046.00;10512794;28;1353;-58
2024/02/24 03:50:50;;;;;;;;;;;;;;;18.12;35.20;94047.06;10530432;28;1914;-59
2024/02/24 03:55:51;;;;;;;;;;;;;;;18.11;35.72;94056.00;10519838;28;2318;-59
2024/02/24 04:00:51;;;;;;;;;;;;;;;18.08;35.85;94054.75;10511049;28;1503;-58
2024/02/24 04:05:51;;;;;;;;;;;;;;;18.07;36.33;94052.44;10508181;28;1374;-59
2024/02/24 04:10:52;;;;;;;;;;;;;;;18.05;36.39;94049.34;10511236;28;1915;-58
2024/02/24 04:15:52;;;;;;;;;;;;;;;18.06;35.53;94050.88;10518671;28;1386;-58
2024/02/24 04:20:52;;;;;;;;;;;;;;;18.03;35.95;94046.25;10512457;28;1539;-58
2024/02/24 04:25:52;;;;;;;;;;;;;;;18.01;36.34;94057.00;10515498;28;1620;-58
2024/02/24 04:30:53;;;;;;;;;;;;;;;17.99;36.52;94068.88;10536834;28;1910;-58
2024/02/24 04:35:55;;;;;;;;;;;;;;;17.98;36.19;94075.97;10517585;28;1413;-59
2024/02/24 04:40:56;;;;;;;;;;;;;;;17.98;36.45;94067.31;10527115;28;1240;-59
2024/02/24 04:45:56;;;;;;;;;;;;;;;17.97;36.16;94073.66;10518590;28;1354;-59
2024/02/24 04:50:56;;;;;;;;;;;;;;;17.95;36.36;94081.03;10508958;28;1910;-58
2024/02/24 04:55:57;;;;;;;;;;;;;;;17.94;35.90;94085.50;10522582;28;2296;-59
2024/02/24 05:00:57;;;;;;;;;;;;;;;17.93;35.98;94091.03;10529173;28;1600;-58
2024/02/24 05:05:57;;;;;;;;;;;;;;;17.92;36.30;94090.25;10535627;28;1432;-58
2024/02/24 05:11:00;;;;;;;;;;;;;;;17.92;36.54;94099.97;10522476;28;1905;-58
2024/02/24 05:16:03;;;;;;;;;;;;;;;17.99;36.41;94100.34;10521769;28;1671;-58
2024/02/24 05:21:03;;;;;;;;;;;;;;;18.03;36.24;94094.22;10521324;28;1365;-58
2024/02/24 05:26:05;;;;;;;;;;;;;;;18.15;36.32;94107.56;10514419;28;1345;-58
2024/02/24 05:31:06;;;;;;;;;;;;;;;18.22;35.98;94107.13;10516585;28;1914;-58
2024/02/24 05:36:06;;;;;;;;;;;;;;;18.29;36.11;94124.03;10523069;28;2632;-58
2024/02/24 05:41:06;;;;;;;;;;;;;;;18.34;36.20;94128.38;10522781;28;1473;-60
2024/02/24 05:46:07;;;;;;;;;;;;;;;18.39;36.01;94130.88;10519272;28;1295;-60
2024/02/24 05:51:10;;;;;;;;;;;;;;;18.44;35.70;94130.81;10516595;28;1910;-59
2024/02/24 05:56:10;;;;;;;;;;;;;;;18.48;35.56;94126.50;10515948;28;1528;-59
2024/02/24 06:01:11;;;;;;;;;;;;;;;18.54;35.42;94136.59;10512996;28;1394;-60
2024/02/24 06:06:11;;;;;;;;;;;;;;;18.58;35.71;94131.50;10508978;28;1727;-59
2024/02/24 06:11:11;;;;;;;;;;;;;;;18.63;35.31;94147.13;10528407;28;1975;-59
2024/02/24 06:16:11;;;;;;;;;;;;;;;18.65;35.32;94153.63;10524478;28;1370;-60
2024/02/24 06:21:12;;;;;;;;;;;;;;;18.71;35.19;94159.53;10518324;28;2709;-59
2024/02/24 06:26:12;;;;;;;;;;;;;;;18.74;35.50;94172.06;10523508;28;975;-60
2024/02/24 06:31:13;;;;;;;;;;;;;;;18.79;34.85;94185.06;10512100;28;1906;-59
2024/02/24 06:36:13;;;;;;;;;;;;;;;18.81;35.36;94192.63;10518404;28;1389;-59
2024/02/24 06:41:14;;;;;;;;;;;;;;;18.85;35.20;94191.75;10510751;28;1002;-60
2024/02/24 06:46:14;;;;;;;;;;;;;;;18.87;34.83;94197.47;10523370;28;1433;-60
2024/02/24 06:51:14;;;;;;;;;;;;;;;18.87;34.65;94205.34;10524764;28;1906;-58
2024/02/24 06:56:18;;;;;;;;;;;;;;;19.00;35.27;94214.22;10522079;28;1087;-62
2024/02/24 07:01:22;;;;;;;;;;;;;;;19.00;35.11;94214.22;10516686;28;1323;-60
2024/02/24 07:06:22;;;;;;;;;;;;;;;19.04;34.80;94221.19;10511423;28;2675;-61
2024/02/24 07:11:22;;;;;;;;;;;;;;;19.06;35.49;94221.66;10508643;28;1910;-62
2024/02/24 07:16:23;;;;;;;;;;;;;;;19.12;35.33;94232.84;10511576;28;2122;-61
2024/02/24 07:21:24;;;;;;;;;;;;;;;19.17;35.23;94240.59;10512298;28;1514;-65
2024/02/24 07:26:24;;;;;;;;;;;;;;;19.23;35.55;94263.81;10516751;28;1684;-60
2024/02/24 07:31:24;;;;;;;;;;;;;;;19.25;35.83;94274.78;10512494;28;1954;-60
2024/02/24 07:36:25;;;;;;;;;;;;;;;19.29;35.56;94291.50;10515652;28;1523;-61
2024/02/24 07:41:25;;;;;;;;;;;;;;;19.32;35.29;94298.78;10518639;28;1023;-62
2024/02/24 07:46:29;;;;;;;;;;;;;;;19.32;35.76;94314.56;10521174;28;2698;-62
2024/02/24 07:51:29;;;;;;;;;;;;;;;19.33;34.95;94316.13;10514692;28;1909;-60
2024/02/24 07:56:30;;;;;;;;;;;;;;;19.36;34.73;94330.53;10520614;28;1220;-61
2024/02/24 08:01:30;;;;;;;;;;;;;;;19.36;34.90;94328.69;10535889;28;1718;-61
2024/02/24 08:06:31;;;;;;;;;;;;;;;19.40;34.52;94331.47;10522866;28;1467;-62
2024/02/24 08:11:39;;;;;;;;;;;;;;;19.36;34.97;94339.19;10525494;28;1910;-62
2024/02/24 08:16:40;;;;;;;;;;;;;;;19.39;34.62;94356.97;10522046;28;1500;-62
2024/02/24 08:21:40;;;;;;;;;;;;;;;19.40;34.71;94376.16;10525075;28;1426;-62
2024/02/24 08:26:40;;;;;;;;;;;;;;;19.44;34.78;94379.72;10511668;28;1157;-61
2024/02/24 08:31:42;;;;;;;;;;;;;;;19.44;34.67;94382.34;10527751;28;3087;-61
2024/02/24 08:36:42;;;;;;;;;;;;;;;19.45;34.87;94397.06;10525591;28;1382;-61
2024/02/24 08:41:43;;;;;;;;;;;;;;;19.53;34.68;94406.84;10516313;28;1468;-62
2024/02/24 08:46:43;;;;;;;;;;;;;;;19.55;34.38;94396.03;10533242;28;2017;-64
2024/02/24 08:51:43;;;;;;;;;;;;;;;19.59;34.88;94407.50;10525439;28;1902;-64
2024/02/24 08:56:45;;;;;;;;;;;;;;;19.59;34.92;94418.03;10530079;28;972;-62
2024/02/24 09:01:45;;;;;;;;;;;;;;;19.61;34.50;94423.75;10521857;28;1490;-60
2024/02/24 09:06:46;;;;;;;;;;;;;;;19.63;34.86;94424.22;10512302;28;1474;-61
2024/02/24 09:11:47;;;;;;;;;;;;;;;19.67;34.35;94427.81;10520945;28;2595;-62
2024/02/24 09:16:47;;;;;;;;;;;;;;;19.68;34.72;94440.66;10511921;28;1428;-61
2024/02/24 09:21:47;;;;;;;;;;;;;;;19.69;34.67;94436.19;10524123;28;1416;-61
2024/02/24 09:26:48;;;;;;;;;;;;;;;19.72;34.69;94454.75;10537611;28;1895;-61
2024/02/24 09:31:48;;;;;;;;;;;;;;;19.76;34.24;94461.00;10527400;28;1918;-60
2024/02/24 09:36:48;;;;;;;;;;;;;;;19.76;35.12;94468.09;10525804;28;1906;-60
2024/02/24 09:41:49;;;;;;;;;;;;;;;19.78;34.75;94477.25;10521128;28;1240;-60
2024/02/24 09:46:49;;;;;;;;;;;;;;;19.82;34.55;94472.16;10518445;28;1417;-60
2024/02/24 09:51:49;;;;;;;;;;;;;;;19.83;34.64;94476.34;10521870;28;1973;-61
2024/02/24 09:56:51;;;;;;;;;;;;;;;19.84;34.67;94476.06;10523000;28;1085;-60
2024/02/24 10:01:52;;;;;;;;;;;;;;;19.86;34.62;94465.22;10523063;28;2571;-60
2024/02/24 10:06:54;;;;;;;;;;;;;;;19.91;34.48;94472.97;10520182;28;1370;-63
2024/02/24 10:11:54;;;;;;;;;;;;;;;19.85;35.23;94489.97;10520521;28;1968;-60
2024/02/24 10:16:57;;;;;;;;;;;;;;;19.85;35.32;94495.22;10520577;28;1341;-61
2024/02/24 10:22:06;;;;;;;;;;;;;;;19.91;35.07;94494.03;10515391;28;1377;-61
2024/02/24 10:27:07;;;;;;;;;;;;;;;19.93;35.05;94505.81;10521515;28;1214;-61
2024/02/24 10:32:07;;;;;;;;;;;;;;;19.91;35.35;94515.84;10535458;28;1983;-61
2024/02/24 10:37:07;;;;;;;;;;;;;;;19.92;35.77;94511.38;10525717;28;1447;-61
2024/02/24 10:42:08;;;;;;;;;;;;;;;19.94;35.02;94512.63;10513031;28;2460;-60
2024/02/24 10:47:08;;;;;;;;;;;;;;;19.97;34.63;94516.53;10509563;28;1490;-61
2024/02/24 10:52:08;;;;;;;;;;;;;;;19.95;35.05;94518.66;10521392;28;1971;-59
2024/02/24 10:57:09;;;;;;;;;;;;;;;19.98;34.74;94518.84;10512803;28;1762;-61
2024/02/24 11:02:10;;;;;;;;;;;;;;;19.97;35.59;94521.78;10508569;28;1548;-61
2024/02/24 11:07:18;;;;;;;;;;;;;;;19.85;32.79;94521.50;10516653;28;1580;-62
2024/02/24 11:12:22;;;;;;;;;;;;;;;19.53;31.75;94514.63;10517174;28;1905;-61
2024/02/24 11:17:41;;;;;;;;;;;;;;;19.22;31.62;94514.47;10522672;28;1424;-62
2024/02/24 11:22:42;;;;;;;;;;;;;;;19.34;33.60;94504.25;10516536;28;1482;-62
2024/02/24 11:27:44;;;;;;;;;;;;;;;19.42;35.60;94508.81;10511335;28;1629;-61
2024/02/24 11:32:50;;;;;;;;;;;;;;;19.58;36.89;94501.34;10520241;28;1981;-60
2024/02/24 11:37:50;;;;;;;;;;;;;;;19.77;37.58;94509.88;10512096;28;2682;-61
2024/02/24 11:42:50;;;;;;;;;;;;;;;19.92;38.51;94508.75;10515319;28;1640;-61
2024/02/24 11:47:51;;;;;;;;;;;;;;;19.84;37.39;94501.56;10515343;28;1520;-61
2024/02/24 11:52:51;;;;;;;;;;;;;;;19.85;37.27;94508.38;10511805;28;1963;-61
2024/02/24 11:57:51;;;;;;;;;;;;;;;19.87;37.03;94508.84;10513287;28;1312;-61
2024/02/24 12:02:55;;;;;;;;;;;;;;;19.86;37.40;94507.31;10515710;28;1576;-61
2024/02/24 12:07:55;;;;;;;;;;;;;;;19.88;37.57;94498.06;10505826;28;1809;-60
2024/02/24 12:12:55;;;;;;;;;;;;;;;19.99;37.40;94498.59;10513285;28;1927;-61
2024/02/24 12:17:55;;;;;;;;;;;;;;;19.78;40.07;94492.25;10515241;28;1352;-61
2024/02/24 12:23:01;;;;;;;;;;;;;;;19.60;40.08;94506.34;10517070;28;2280;-62
2024/02/24 12:28:05;;;;;;;;;;;;;;;19.72;40.83;94496.06;10515810;28;1530;-63
2024/02/24 12:33:05;;;;;;;;;;;;;;;19.79;38.96;94485.91;10514745;28;1560;-62
2024/02/24 12:38:06;;;;;;;;;;;;;;;19.77;40.41;94488.03;10509443;28;1863;-61
2024/02/24 12:43:07;;;;;;;;;;;;;;;19.88;39.65;94495.41;10503891;28;2295;-63
2024/02/24 12:48:07;;;;;;;;;;;;;;;19.86;40.16;94496.78;10518210;28;1996;-62
2024/02/24 12:53:07;;;;;;;;;;;;;;;19.87;39.70;94511.47;10516703;28;1678;-66
2024/02/24 12:58:07;;;;;;;;;;;;;;;19.92;39.15;94512.16;10518859;28;1692;-66
2024/02/24 13:03:08;;;;;;;;;;;;;;;19.97;39.19;94500.75;10527825;28;1460;-64
2024/02/24 13:08:08;;;;;;;;;;;;;;;20.01;39.26;94504.34;10526148;28;1909;-64
2024/02/24 13:13:08;;;;;;;;;;;;;;;19.96;39.56;94502.59;10527615;28;1844;-64
2024/02/24 13:18:09;;;;;;;;;;;;;;;19.92;39.69;94490.34;10521799;28;1553;-64
2024/02/24 13:23:10;;;;;;;;;;;;;;;19.96;39.87;94493.91;10525740;28;2398;-64
2024/02/24 13:28:11;;;;;;;;;;;;;;;19.92;39.96;94495.59;10525406;28;1913;-63
2024/02/24 13:33:11;;;;;;;;;;;;;;;19.92;39.39;94500.84;10516917;28;1725;-66
2024/02/24 13:38:12;;;;;;;;;;;;;;;19.92;39.20;94503.47;10513535;28;1923;-64
2024/02/24 13:43:12;;;;;;;;;;;;;;;19.89;39.79;94506.69;10507749;28;2028;-64
2024/02/24 13:48:12;;;;;;;;;;;;;;;19.88;39.62;94502.53;10512261;28;2065;-64
2024/02/24 13:53:13;;;;;;;;;;;;;;;19.92;39.56;94525.31;10508523;28;2050;-64
2024/02/24 13:58:13;;;;;;;;;;;;;;;19.93;39.30;94523.44;10499994;28;1998;-64
2024/02/24 14:03:14;;;;;;;;;;;;;;;20.00;39.34;94526.44;10502775;28;2455;-64
2024/02/24 14:08:14;;;;;;;;;;;;;;;20.02;39.67;94526.91;10505399;28;2114;-64
2024/02/24 14:13:15;;;;;;;;;;;;;;;20.01;39.48;94526.13;10503017;28;2045;-64
2024/02/24 14:18:15;;;;;;;;;;;;;;;19.95;39.62;94526.53;10504733;28;1984;-64
2024/02/24 14:23:15;;;;;;;;;;;;;;;19.91;41.27;94530.84;10505026;28;1943;-64
2024/02/24 14:28:15;;;;;;;;;;;;;;;19.85;41.69;94537.28;10507937;28;1983;-64
2024/02/24 14:33:16;;;;;;;;;;;;;;;19.84;40.25;94551.53;10501552;28;2070;-64
2024/02/24 14:38:16;;;;;;;;;;;;;;;19.82;40.62;94551.06;10504282;28;2097;-64
2024/02/24 14:43:16;;;;;;;;;;;;;;;19.80;40.09;94553.19;10500671;28;2355;-64
2024/02/24 14:48:16;;;;;;;;;;;;;;;19.77;40.07;94540.63;10503968;28;2113;-65
2024/02/24 14:53:17;;;;;;;;;;;;;;;19.78;40.58;94555.34;10501893;28;1932;-64
2024/02/24 14:58:19;;;;;;;;;;;;;;;19.81;40.96;94544.22;10499918;28;1986;-64
2024/02/24 15:03:19;;;;;;;;;;;;;;;19.83;41.64;94544.69;10507881;28;2057;-64
2024/02/24 15:08:20;;;;;;;;;;;;;;;19.86;41.83;94554.63;10509855;28;2092;-64
2024/02/24 15:13:20;;;;;;;;;;;;;;;19.90;42.12;94556.38;10497276;28;1877;-64
2024/02/24 15:18:20;;;;;;;;;;;;;;;19.92;41.80;94553.44;10503310;28;1900;-64
2024/02/24 15:23:20;;;;;;;;;;;;;;;19.94;41.86;94540.78;10500348;28;2021;-66
2024/02/24 15:28:21;;;;;;;;;;;;;;;19.93;41.45;94539.22;10502347;28;2077;-63
2024/02/24 15:33:21;;;;;;;;;;;;;;;19.92;41.44;94556.88;10506168;28;2411;-63
2024/02/24 15:38:22;;;;;;;;;;;;;;;19.95;42.00;94545.72;10505829;28;2136;-64
2024/02/24 15:43:22;;;;;;;;;;;;;;;19.96;41.86;94547.31;10498520;28;2127;-64
2024/02/24 15:48:22;;;;;;;;;;;;;;;20.00;41.36;94550.88;10497442;28;2106;-63
2024/02/24 15:53:23;;;;;;;;;;;;;;;20.00;41.93;94555.38;10507382;28;2077;-62
2024/02/24 15:58:23;;;;;;;;;;;;;;;20.06;41.78;94554.19;10506430;28;2037;-64
2024/02/24 16:03:24;;;;;;;;;;;;;;;20.03;41.73;94552.91;10504389;28;1925;-63
2024/02/24 16:08:24;;;;;;;;;;;;;;;20.03;41.85;94565.31;10502647;28;2123;-62
2024/02/24 16:13:24;;;;;;;;;;;;;;;20.01;41.43;94568.22;10508129;28;1930;-62
2024/02/24 16:18:24;;;;;;;;;;;;;;;20.04;41.67;94572.09;10519366;28;2541;-62
2024/02/24 16:23:25;;;;;;;;;;;;;;;20.05;41.60;94563.16;10511388;28;2203;-64
2024/02/24 16:28:25;;;;;;;;;;;;;;;20.05;41.88;94568.41;10507709;28;2158;-63
2024/02/24 16:33:25;;;;;;;;;;;;;;;20.04;42.15;94569.47;10508041;28;2311;-62
2024/02/24 16:38:25;;;;;;;;;;;;;;;20.06;41.56;94576.00;10515027;28;1912;-63
2024/02/24 16:43:26;;;;;;;;;;;;;;;20.06;41.36;94583.13;10513558;28;2109;-63
2024/02/24 16:48:26;;;;;;;;;;;;;;;20.05;41.15;94587.59;10508817;28;1995;-63
2024/02/24 16:53:26;;;;;;;;;;;;;;;20.05;41.49;94584.97;10507843;28;2030;-63
2024/02/24 16:58:26;;;;;;;;;;;;;;;20.06;41.35;94591.00;10508722;28;1959;-63
2024/02/24 17:03:27;;;;;;;;;;;;;;;20.08;41.28;94594.13;10508155;28;2767;-63
2024/02/24 17:08:27;;;;;;;;;;;;;;;20.08;41.50;94604.63;10507434;28;2156;-63
2024/02/24 17:13:27;;;;;;;;;;;;;;;20.04;41.37;94599.19;10514224;28;1939;-64
2024/02/24 17:18:28;;;;;;;;;;;;;;;20.07;41.11;94603.84;10510427;28;2061;-63
2024/02/24 17:23:28;;;;;;;;;;;;;;;20.05;40.90;94610.50;10514189;28;1986;-66
2024/02/24 17:28:28;;;;;;;;;;;;;;;20.07;40.79;94611.00;10498858;28;2062;-63
2024/02/24 17:33:29;;;;;;;;;;;;;;;20.08;41.27;94612.53;10508363;28;2054;-64
2024/02/24 17:38:29;;;;;;;;;;;;;;;20.23;41.42;94620.13;10520592;28;1898;-63
2024/02/24 17:43:29;;;;;;;;;;;;;;;20.25;40.53;94631.91;10514406;28;1481;-63
2024/02/24 17:48:30;;;;;;;;;;;;;;;20.27;41.02;94640.28;10521885;28;2662;-65
2024/02/24 17:53:30;;;;;;;;;;;;;;;20.39;40.68;94644.22;10512931;28;1515;-65
2024/02/24 17:58:30;;;;;;;;;;;;;;;20.45;40.61;94641.19;10508562;28;1502;-60
2024/02/24 18:03:31;;;;;;;;;;;;;;;20.46;40.00;94637.47;10510587;28;1733;-60
2024/02/24 18:08:31;;;;;;;;;;;;;;;20.55;40.07;94640.94;10517116;28;1973;-61
2024/02/24 18:13:31;;;;;;;;;;;;;;;20.59;39.59;94652.44;10513373;28;1526;-63
2024/02/24 18:18:32;;;;;;;;;;;;;;;20.60;39.72;94653.22;10512859;28;1629;-61
2024/02/24 18:23:32;;;;;;;;;;;;;;;20.59;39.98;94656.91;10518182;28;1488;-62
2024/02/24 18:28:32;;;;;;;;;;;;;;;20.62;40.16;94651.06;10515743;28;2744;-68
2024/02/24 18:33:33;;;;;;;;;;;;;;;20.66;39.94;94652.78;10527974;28;1996;-65
2024/02/24 18:38:33;;;;;;;;;;;;;;;20.76;43.00;94651.75;10529928;28;1593;-67
2024/02/24 18:43:33;;;;;;;;;;;;;;;20.84;41.22;94654.44;10511576;28;1606;-66
2024/02/24 18:48:34;;;;;;;;;;;;;;;20.81;41.52;94651.66;10519508;28;1926;-63
2024/02/24 18:53:34;;;;;;;;;;;;;;;20.77;40.16;94648.06;10516665;28;1514;-64
2024/02/24 18:58:34;;;;;;;;;;;;;;;20.80;40.47;94642.97;10519383;28;1496;-66
2024/02/24 19:03:35;;;;;;;;;;;;;;;20.77;39.94;94650.69;10513588;28;1612;-65
2024/02/24 19:08:38;;;;;;;;;;;;;;;20.74;40.80;94651.28;10516432;28;1943;-63
2024/02/24 19:13:39;;;;;;;;;;;;;;;20.82;41.24;94664.50;10504722;28;1505;-63
2024/02/24 19:18:39;;;;;;;;;;;;;;;20.90;41.93;94661.16;10517786;28;2725;-63
2024/02/24 19:23:39;;;;;;;;;;;;;;;21.01;41.47;94664.31;10512093;28;1575;-65
2024/02/24 19:28:40;;;;;;;;;;;;;;;21.04;41.52;94661.88;10512786;28;1906;-63
2024/02/24 19:33:40;;;;;;;;;;;;;;;21.08;41.51;94663.91;10517675;28;1832;-63
2024/02/24 19:38:40;;;;;;;;;;;;;;;21.12;41.42;94665.66;10513485;28;1891;-63
2024/02/24 19:43:40;;;;;;;;;;;;;;;21.24;41.65;94675.63;10512448;28;1413;-64
2024/02/24 19:48:41;;;;;;;;;;;;;;;21.31;41.65;94678.63;10511359;28;1906;-65
2024/02/24 19:53:41;;;;;;;;;;;;;;;21.33;40.92;94673.81;10511657;28;1718;-64
2024/02/24 19:58:41;;;;;;;;;;;;;;;21.34;41.34;94678.78;10514580;28;1472;-64
2024/02/24 20:03:42;;;;;;;;;;;;;;;21.38;40.75;94678.94;10526729;28;1549;-64
2024/02/24 20:08:42;;;;;;;;;;;;;;;21.39;41.87;94681.25;10506056;28;2683;-64
2024/02/24 20:13:43;;;;;;;;;;;;;;;21.41;42.01;94694.16;10524906;28;1450;-65
2024/02/24 20:18:43;;;;;;;;;;;;;;;21.41;42.28;94700.19;10507057;28;1734;-65
2024/02/24 20:23:43;;;;;;;;;;;;;;;21.47;41.39;94700.84;10510490;28;1959;-64
2024/02/24 20:28:43;;;;;;;;;;;;;;;21.47;41.19;94698.22;10512319;28;1968;-60
2024/02/24 20:33:45;;;;;;;;;;;;;;;21.48;41.52;94710.31;10514073;28;1422;-64
2024/02/24 20:38:46;;;;;;;;;;;;;;;21.51;41.38;94717.63;10509836;28;1491;-65
2024/02/24 20:43:49;;;;;;;;;;;;;;;21.50;41.79;94710.78;10515160;28;1653;-63
2024/02/24 20:48:49;;;;;;;;;;;;;;;21.49;41.91;94712.66;10512699;28;1909;-64
2024/02/24 20:53:50;;;;;;;;;;;;;;;21.51;41.81;94720.25;10514917;28;2625;-65
2024/02/24 20:58:50;;;;;;;;;;;;;;;21.51;41.74;94728.16;10518580;28;1474;-66
2024/02/24 21:03:50;;;;;;;;;;;;;;;21.54;40.56;94730.19;10508686;28;1465;-67
2024/02/24 21:08:50;;;;;;;;;;;;;;;21.54;41.60;94738.09;10502612;28;2299;-64
2024/02/24 21:13:51;;;;;;;;;;;;;;;21.52;40.49;94740.25;10502957;28;1483;-65
2024/02/24 21:18:51;;;;;;;;;;;;;;;21.54;40.24;94740.72;10517203;28;1765;-66
2024/02/24 21:23:54;;;;;;;;;;;;;;;21.50;41.36;94724.75;10504582;28;1406;-66
2024/02/24 21:28:55;;;;;;;;;;;;;;;21.49;40.74;94733.75;10498654;28;1980;-66
2024/02/24 21:33:55;;;;;;;;;;;;;;;21.51;40.76;94765.88;10512355;28;2628;-66
2024/02/24 21:38:57;;;;;;;;;;;;;;;21.51;40.41;94775.63;10515008;28;1742;-67
2024/02/24 21:43:57;;;;;;;;;;;;;;;21.50;40.18;94763.50;10513180;28;1625;-65
2024/02/24 21:48:58;;;;;;;;;;;;;;;21.56;39.37;94764.94;10511817;28;1914;-65
2024/02/24 21:53:59;;;;;;;;;;;;;;;21.46;39.72;94771.25;10500688;28;1703;-65
2024/02/24 21:59:00;;;;;;;;;;;;;;;21.48;40.56;94770.94;10510357;28;1517;-66
2024/02/24 22:04:00;;;;;;;;;;;;;;;21.45;40.20;94767.06;10514013;28;1711;-64
2024/02/24 22:09:00;;;;;;;;;;;;;;;21.49;38.88;94769.88;10509574;28;1918;-64
2024/02/24 22:14:01;;;;;;;;;;;;;;;21.44;40.43;94756.81;10511523;28;1500;-64
2024/02/24 22:19:01;;;;;;;;;;;;;;;21.40;40.92;94756.66;10500641;28;2539;-63
2024/02/24 22:24:02;;;;;;;;;;;;;;;21.36;41.13;94760.19;10509943;28;1903;-63
2024/02/24 22:29:02;;;;;;;;;;;;;;;21.28;39.77;94753.78;10504088;28;2046;-62
2024/02/24 22:34:02;;;;;;;;;;;;;;;21.25;39.45;94750.97;10506211;28;2170;-63
2024/02/24 22:39:02;;;;;;;;;;;;;;;21.16;39.58;94750.94;10509023;28;1935;-63
2024/02/24 22:44:03;;;;;;;;;;;;;;;21.09;39.48;94750.56;10507680;28;1922;-63
2024/02/24 22:49:03;;;;;;;;;;;;;;;21.00;40.00;94750.47;10512500;28;2088;-63
2024/02/24 22:54:03;;;;;;;;;;;;;;;20.93;40.06;94758.03;10513986;28;2097;-64
2024/02/24 22:59:04;;;;;;;;;;;;;;;20.87;40.00;94748.69;10507832;28;1950;-63
2024/02/24 23:04:04;;;;;;;;;;;;;;;20.82;40.28;94761.97;10515023;28;2427;-63
2024/02/24 23:09:05;;;;;;;;;;;;;;;20.77;40.66;94764.69;10498405;28;2132;-63
2024/02/24 23:14:07;;;;;;;;;;;;;;;20.72;40.44;94766.69;10504126;28;2046;-64
2024/02/24 23:19:08;;;;;;;;;;;;;;;20.67;40.19;94762.28;10508042;28;2014;-62
2024/02/24 23:24:08;;;;;;;;;;;;;;;20.63;40.65;94771.13;10508461;28;1955;-63
2024/02/24 23:29:10;;;;;;;;;;;;;;;20.60;41.27;94761.16;10514191;28;2139;-64
2024/02/24 23:34:10;;;;;;;;;;;;;;;20.56;41.33;94762.84;10507603;28;2042;-63
2024/02/24 23:39:10;;;;;;;;;;;;;;;20.54;41.14;94755.22;10498754;28;2165;-64
2024/02/24 23:44:10;;;;;;;;;;;;;;;20.51;41.32;94734.75;10502594;28;2780;-63
2024/02/24 23:49:11;;;;;;;;;;;;;;;20.49;41.85;94726.38;10488314;28;2002;-62
2024/02/24 23:54:12;;;;;;;;;;;;;;;20.47;41.85;94720.63;10511798;28;1890;-64
2024/02/24 23:59:12;;;;;;;;;;;;;;;20.45;41.72;94708.84;10508177;28;1982;-62
